sensor_id;sensor_type;location;lat;lon;timestamp;temperature;humidity
39325;DHT22;25037;49.488;9.900;2022-12-18T00:01:33;-3266.90;66.60
39325;DHT22;25037;49.488;9.900;2022-12-18T00:03:59;-3266.90;66.70
39325;DHT22;25037;49.488;9.900;2022-12-18T00:06:26;-3267.00;66.60
39325;DHT22;25037;49.488;9.900;2022-12-18T00:08:51;-3266.90;66.50
39325;DHT22;25037;49.488;9.900;2022-12-18T00:11:18;-3266.90;66.50
39325;DHT22;25037;49.488;9.900;2022-12-18T00:13:44;-3266.90;66.50
39325;DHT22;25037;49.488;9.900;2022-12-18T00:16:11;-3266.90;66.40
39325;DHT22;25037;49.488;9.900;2022-12-18T00:18:37;-3266.90;66.40
39325;DHT22;25037;49.488;9.900;2022-12-18T00:21:03;-3266.80;66.50
39325;DHT22;25037;49.488;9.900;2022-12-18T00:23:29;-3266.80;66.50
39325;DHT22;25037;49.488;9.900;2022-12-18T00:25:58;-3266.80;66.60
39325;DHT22;25037;49.488;9.900;2022-12-18T00:28:24;-3266.80;66.60
39325;DHT22;25037;49.488;9.900;2022-12-18T00:30:49;-3266.80;66.60
39325;DHT22;25037;49.488;9.900;2022-12-18T00:33:17;-3266.80;66.60
39325;DHT22;25037;49.488;9.900;2022-12-18T00:35:42;-3266.80;66.60
39325;DHT22;25037;49.488;9.900;2022-12-18T00:38:08;-3266.80;66.60
39325;DHT22;25037;49.488;9.900;2022-12-18T00:40:33;-3266.80;66.50
39325;DHT22;25037;49.488;9.900;2022-12-18T00:42:59;-3266.70;66.50
39325;DHT22;25037;49.488;9.900;2022-12-18T00:45:25;-3266.70;66.50
39325;DHT22;25037;49.488;9.900;2022-12-18T00:47:50;-3266.60;66.50
39325;DHT22;25037;49.488;9.900;2022-12-18T00:50:16;-3266.60;66.60
39325;DHT22;25037;49.488;9.900;2022-12-18T00:52:41;-3266.60;66.60
39325;DHT22;25037;49.488;9.900;2022-12-18T00:55:07;-3266.60;66.60
39325;DHT22;25037;49.488;9.900;2022-12-18T00:57:33;-3266.50;66.60
39325;DHT22;25037;49.488;9.900;2022-12-18T00:59:58;-3266.60;66.70
39325;DHT22;25037;49.488;9.900;2022-12-18T01:02:24;-3266.50;66.70
39325;DHT22;25037;49.488;9.900;2022-12-18T01:04:50;-3266.60;66.70
39325;DHT22;25037;49.488;9.900;2022-12-18T01:07:15;-3266.50;66.60
39325;DHT22;25037;49.488;9.900;2022-12-18T01:09:41;-3266.60;66.60
39325;DHT22;25037;49.488;9.900;2022-12-18T01:12:06;-3266.60;66.70
39325;DHT22;25037;49.488;9.900;2022-12-18T01:14:32;-3266.60;66.70
39325;DHT22;25037;49.488;9.900;2022-12-18T01:16:57;-3266.60;66.70
39325;DHT22;25037;49.488;9.900;2022-12-18T01:19:22;-3266.70;66.60
39325;DHT22;25037;49.488;9.900;2022-12-18T01:21:49;-3266.70;66.60
39325;DHT22;25037;49.488;9.900;2022-12-18T01:24:14;-3266.70;66.50
39325;DHT22;25037;49.488;9.900;2022-12-18T01:26:40;-3266.70;66.50
39325;DHT22;25037;49.488;9.900;2022-12-18T01:29:05;-3266.70;66.50
39325;DHT22;25037;49.488;9.900;2022-12-18T01:31:31;-3266.70;66.60
39325;DHT22;25037;49.488;9.900;2022-12-18T01:33:57;-3266.70;66.50
39325;DHT22;25037;49.488;9.900;2022-12-18T01:36:32;-3266.70;66.60
39325;DHT22;25037;49.488;9.900;2022-12-18T01:39:02;-3266.70;66.60
39325;DHT22;25037;49.488;9.900;2022-12-18T01:41:29;-3266.80;66.60
39325;DHT22;25037;49.488;9.900;2022-12-18T01:47:01;-3266.80;66.60
39325;DHT22;25037;49.488;9.900;2022-12-18T01:49:27;-3266.70;66.60
39325;DHT22;25037;49.488;9.900;2022-12-18T01:51:52;-3266.70;66.60
39325;DHT22;25037;49.488;9.900;2022-12-18T01:54:18;-3266.70;66.60
39325;DHT22;25037;49.488;9.900;2022-12-18T01:56:43;-3266.70;66.60
39325;DHT22;25037;49.488;9.900;2022-12-18T01:59:08;-3266.70;66.60
39325;DHT22;25037;49.488;9.900;2022-12-18T02:01:35;-3266.70;66.60
39325;DHT22;25037;49.488;9.900;2022-12-18T02:06:46;-3266.70;66.70
39325;DHT22;25037;49.488;9.900;2022-12-18T02:09:24;-3266.70;66.70
39325;DHT22;25037;49.488;9.900;2022-12-18T02:11:53;-3266.60;66.60
39325;DHT22;25037;49.488;9.900;2022-12-18T02:14:37;-3266.60;66.70
39325;DHT22;25037;49.488;9.900;2022-12-18T02:17:08;-3266.60;66.70
39325;DHT22;25037;49.488;9.900;2022-12-18T02:22:20;-3266.60;66.60
39325;DHT22;25037;49.488;9.900;2022-12-18T02:24:53;-3266.50;66.50
39325;DHT22;25037;49.488;9.900;2022-12-18T02:27:20;-3266.40;66.60
39325;DHT22;25037;49.488;9.900;2022-12-18T02:29:52;-3266.40;66.70
39325;DHT22;25037;49.488;9.900;2022-12-18T02:32:20;-3266.40;66.70
39325;DHT22;25037;49.488;9.900;2022-12-18T02:34:46;-3266.40;66.70
39325;DHT22;25037;49.488;9.900;2022-12-18T02:37:13;-3266.40;66.70
39325;DHT22;25037;49.488;9.900;2022-12-18T02:39:40;-3266.40;66.70
39325;DHT22;25037;49.488;9.900;2022-12-18T02:42:07;-3266.40;66.70
39325;DHT22;25037;49.488;9.900;2022-12-18T02:44:43;-3266.40;66.60
39325;DHT22;25037;49.488;9.900;2022-12-18T02:47:13;-3266.40;66.70
39325;DHT22;25037;49.488;9.900;2022-12-18T02:57:30;-3266.40;66.60
39325;DHT22;25037;49.488;9.900;2022-12-18T02:59:58;-3266.50;66.60
39325;DHT22;25037;49.488;9.900;2022-12-18T03:02:28;-3266.50;66.70
39325;DHT22;25037;49.488;9.900;2022-12-18T03:04:59;-3266.50;66.60
39325;DHT22;25037;49.488;9.900;2022-12-18T03:07:32;-3266.50;66.50
39325;DHT22;25037;49.488;9.900;2022-12-18T03:09:59;-3266.50;66.50
39325;DHT22;25037;49.488;9.900;2022-12-18T03:12:30;-3266.50;66.50
39325;DHT22;25037;49.488;9.900;2022-12-18T03:17:25;-3266.50;66.60
39325;DHT22;25037;49.488;9.900;2022-12-18T03:19:51;-3266.50;66.70
39325;DHT22;25037;49.488;9.900;2022-12-18T03:22:18;-3266.50;66.60
39325;DHT22;25037;49.488;9.900;2022-12-18T03:24:44;-3266.50;66.60
39325;DHT22;25037;49.488;9.900;2022-12-18T03:27:11;-3266.50;66.60
39325;DHT22;25037;49.488;9.900;2022-12-18T03:29:40;-3266.50;66.60
39325;DHT22;25037;49.488;9.900;2022-12-18T03:32:11;-3266.40;66.70
39325;DHT22;25037;49.488;9.900;2022-12-18T03:34:37;-3266.50;66.70
39325;DHT22;25037;49.488;9.900;2022-12-18T03:37:04;-3266.50;66.60
39325;DHT22;25037;49.488;9.900;2022-12-18T03:39:30;-3266.40;66.60
39325;DHT22;25037;49.488;9.900;2022-12-18T03:42:05;-3266.40;66.60
39325;DHT22;25037;49.488;9.900;2022-12-18T03:44:45;-3266.40;66.60
39325;DHT22;25037;49.488;9.900;2022-12-18T03:47:32;-3266.40;66.70
39325;DHT22;25037;49.488;9.900;2022-12-18T03:52:28;-3266.50;66.60
39325;DHT22;25037;49.488;9.900;2022-12-18T03:54:55;-3266.50;66.60
39325;DHT22;25037;49.488;9.900;2022-12-18T03:57:23;-3266.40;66.70
39325;DHT22;25037;49.488;9.900;2022-12-18T03:59:50;-3266.40;66.70
39325;DHT22;25037;49.488;9.900;2022-12-18T04:02:17;-3266.40;66.70
39325;DHT22;25037;49.488;9.900;2022-12-18T04:04:43;-3266.40;66.70
39325;DHT22;25037;49.488;9.900;2022-12-18T04:07:09;-3266.40;66.70
39325;DHT22;25037;49.488;9.900;2022-12-18T04:09:35;-3266.40;66.70
39325;DHT22;25037;49.488;9.900;2022-12-18T04:12:01;-3266.40;66.70
39325;DHT22;25037;49.488;9.900;2022-12-18T04:14:27;-3266.40;66.70
39325;DHT22;25037;49.488;9.900;2022-12-18T04:16:52;-3266.40;66.70
39325;DHT22;25037;49.488;9.900;2022-12-18T04:19:18;-3266.30;66.70
39325;DHT22;25037;49.488;9.900;2022-12-18T04:21:43;-3266.30;66.70
39325;DHT22;25037;49.488;9.900;2022-12-18T04:24:09;-3266.20;66.70
39325;DHT22;25037;49.488;9.900;2022-12-18T04:26:34;-3266.20;66.80
39325;DHT22;25037;49.488;9.900;2022-12-18T04:29:00;-3266.20;66.80
39325;DHT22;25037;49.488;9.900;2022-12-18T04:31:25;-3266.20;66.80
39325;DHT22;25037;49.488;9.900;2022-12-18T04:33:51;-3266.20;66.80
39325;DHT22;25037;49.488;9.900;2022-12-18T04:36:16;-3266.10;66.80
39325;DHT22;25037;49.488;9.900;2022-12-18T04:38:42;-3266.20;66.70
39325;DHT22;25037;49.488;9.900;2022-12-18T04:41:07;-3266.10;66.60
39325;DHT22;25037;49.488;9.900;2022-12-18T04:43:32;-3266.00;66.70
39325;DHT22;25037;49.488;9.900;2022-12-18T04:46:02;-3266.00;66.70
39325;DHT22;25037;49.488;9.900;2022-12-18T04:48:27;-3266.00;66.80
39325;DHT22;25037;49.488;9.900;2022-12-18T04:50:53;-3266.00;66.80
39325;DHT22;25037;49.488;9.900;2022-12-18T04:53:18;-3266.10;66.80
39325;DHT22;25037;49.488;9.900;2022-12-18T04:55:44;-3266.10;66.80
39325;DHT22;25037;49.488;9.900;2022-12-18T04:58:09;-3266.10;66.80
39325;DHT22;25037;49.488;9.900;2022-12-18T05:00:35;-3266.20;66.70
39325;DHT22;25037;49.488;9.900;2022-12-18T05:03:01;-3266.20;66.70
39325;DHT22;25037;49.488;9.900;2022-12-18T05:05:27;-3266.20;66.70
39325;DHT22;25037;49.488;9.900;2022-12-18T05:07:52;-3266.20;66.70
39325;DHT22;25037;49.488;9.900;2022-12-18T05:10:17;-3266.20;66.70
39325;DHT22;25037;49.488;9.900;2022-12-18T05:12:43;-3266.20;66.70
39325;DHT22;25037;49.488;9.900;2022-12-18T05:15:28;-3266.20;66.70
39325;DHT22;25037;49.488;9.900;2022-12-18T05:17:53;-3266.20;66.70
39325;DHT22;25037;49.488;9.900;2022-12-18T05:20:19;-3266.20;66.70
39325;DHT22;25037;49.488;9.900;2022-12-18T05:22:44;-3266.20;66.70
39325;DHT22;25037;49.488;9.900;2022-12-18T05:25:10;-3266.20;66.60
39325;DHT22;25037;49.488;9.900;2022-12-18T05:27:35;-3266.20;66.60
39325;DHT22;25037;49.488;9.900;2022-12-18T05:30:01;-3266.20;66.60
39325;DHT22;25037;49.488;9.900;2022-12-18T05:32:26;-3266.10;66.70
39325;DHT22;25037;49.488;9.900;2022-12-18T05:34:52;-3266.10;66.60
39325;DHT22;25037;49.488;9.900;2022-12-18T05:37:17;-3266.10;66.70
39325;DHT22;25037;49.488;9.900;2022-12-18T05:39:43;-3266.10;66.70
39325;DHT22;25037;49.488;9.900;2022-12-18T05:42:09;-3266.00;66.60
39325;DHT22;25037;49.488;9.900;2022-12-18T05:44:35;-3266.10;66.70
39325;DHT22;25037;49.488;9.900;2022-12-18T05:47:00;-3266.00;66.70
39325;DHT22;25037;49.488;9.900;2022-12-18T05:49:26;-3266.00;66.60
39325;DHT22;25037;49.488;9.900;2022-12-18T05:51:51;-3266.00;66.70
39325;DHT22;25037;49.488;9.900;2022-12-18T05:54:17;-3266.00;66.70
39325;DHT22;25037;49.488;9.900;2022-12-18T05:56:42;-3266.00;66.70
39325;DHT22;25037;49.488;9.900;2022-12-18T05:59:07;-3266.00;66.70
39325;DHT22;25037;49.488;9.900;2022-12-18T06:01:33;-3266.00;66.70
39325;DHT22;25037;49.488;9.900;2022-12-18T06:03:59;-3266.00;66.70
39325;DHT22;25037;49.488;9.900;2022-12-18T06:06:25;-3266.00;66.50
39325;DHT22;25037;49.488;9.900;2022-12-18T06:08:51;-3266.00;66.60
39325;DHT22;25037;49.488;9.900;2022-12-18T06:11:20;-3266.00;66.70
39325;DHT22;25037;49.488;9.900;2022-12-18T06:13:46;-3265.90;66.70
39325;DHT22;25037;49.488;9.900;2022-12-18T06:16:12;-3265.90;66.60
39325;DHT22;25037;49.488;9.900;2022-12-18T06:18:37;-3265.90;66.60
39325;DHT22;25037;49.488;9.900;2022-12-18T06:21:02;-3265.90;66.60
39325;DHT22;25037;49.488;9.900;2022-12-18T06:23:28;-3265.90;66.70
39325;DHT22;25037;49.488;9.900;2022-12-18T06:25:53;-3265.90;66.60
39325;DHT22;25037;49.488;9.900;2022-12-18T06:28:19;-3265.90;66.70
39325;DHT22;25037;49.488;9.900;2022-12-18T06:30:48;-3265.90;66.70
39325;DHT22;25037;49.488;9.900;2022-12-18T06:33:14;-3265.90;66.70
39325;DHT22;25037;49.488;9.900;2022-12-18T06:35:40;-3265.90;66.70
39325;DHT22;25037;49.488;9.900;2022-12-18T06:38:05;-3265.90;66.70
39325;DHT22;25037;49.488;9.900;2022-12-18T06:40:31;-3265.90;66.70
39325;DHT22;25037;49.488;9.900;2022-12-18T06:42:56;-3265.90;66.70
39325;DHT22;25037;49.488;9.900;2022-12-18T06:45:22;-3265.90;66.70
39325;DHT22;25037;49.488;9.900;2022-12-18T06:47:47;-3266.00;66.70
39325;DHT22;25037;49.488;9.900;2022-12-18T06:50:13;-3266.00;66.70
39325;DHT22;25037;49.488;9.900;2022-12-18T06:52:39;-3266.10;66.60
39325;DHT22;25037;49.488;9.900;2022-12-18T06:55:06;-3266.10;66.60
39325;DHT22;25037;49.488;9.900;2022-12-18T06:57:31;-3266.10;66.60
39325;DHT22;25037;49.488;9.900;2022-12-18T06:59:57;-3266.10;66.60
39325;DHT22;25037;49.488;9.900;2022-12-18T07:02:22;-3266.10;66.50
39325;DHT22;25037;49.488;9.900;2022-12-18T07:04:48;-3266.10;66.50
39325;DHT22;25037;49.488;9.900;2022-12-18T07:07:13;-3266.00;66.50
39325;DHT22;25037;49.488;9.900;2022-12-18T07:09:39;-3266.00;66.60
39325;DHT22;25037;49.488;9.900;2022-12-18T07:12:04;-3266.10;66.60
39325;DHT22;25037;49.488;9.900;2022-12-18T07:14:30;-3266.00;66.60
39325;DHT22;25037;49.488;9.900;2022-12-18T07:16:55;-3266.10;66.60
39325;DHT22;25037;49.488;9.900;2022-12-18T07:19:21;-3266.10;66.60
39325;DHT22;25037;49.488;9.900;2022-12-18T07:21:46;-3266.10;66.60
39325;DHT22;25037;49.488;9.900;2022-12-18T07:24:12;-3266.10;66.60
39325;DHT22;25037;49.488;9.900;2022-12-18T07:26:37;-3266.10;66.60
39325;DHT22;25037;49.488;9.900;2022-12-18T07:29:03;-3266.20;66.60
39325;DHT22;25037;49.488;9.900;2022-12-18T07:31:28;-3266.20;66.60
39325;DHT22;25037;49.488;9.900;2022-12-18T07:33:53;-3266.30;66.60
39325;DHT22;25037;49.488;9.900;2022-12-18T07:36:19;-3266.30;66.70
39325;DHT22;25037;49.488;9.900;2022-12-18T07:38:48;-3266.40;66.70
39325;DHT22;25037;49.488;9.900;2022-12-18T07:41:14;-3266.50;66.60
39325;DHT22;25037;49.488;9.900;2022-12-18T07:43:39;-3266.60;66.60
39325;DHT22;25037;49.488;9.900;2022-12-18T07:46:05;-3266.70;66.60
39325;DHT22;25037;49.488;9.900;2022-12-18T07:48:31;-3266.70;66.50
39325;DHT22;25037;49.488;9.900;2022-12-18T07:51:00;-3266.90;66.50
39325;DHT22;25037;49.488;9.900;2022-12-18T07:53:25;-3267.00;66.50
39325;DHT22;25037;49.488;9.900;2022-12-18T07:55:55;-3267.10;66.40
39325;DHT22;25037;49.488;9.900;2022-12-18T07:58:20;-3267.20;66.40
39325;DHT22;25037;49.488;9.900;2022-12-18T08:00:46;-3267.30;66.30
39325;DHT22;25037;49.488;9.900;2022-12-18T08:03:11;-3267.40;66.30
39325;DHT22;25037;49.488;9.900;2022-12-18T08:05:37;-3267.50;66.40
39325;DHT22;25037;49.488;9.900;2022-12-18T08:08:02;-3267.70;66.30
39325;DHT22;25037;49.488;9.900;2022-12-18T08:10:28;-3267.80;66.20
39325;DHT22;25037;49.488;9.900;2022-12-18T08:12:53;-3267.90;66.20
39325;DHT22;25037;49.488;9.900;2022-12-18T08:15:19;-3268.00;66.20
39325;DHT22;25037;49.488;9.900;2022-12-18T08:17:44;-3268.20;66.30
39325;DHT22;25037;49.488;9.900;2022-12-18T08:20:10;-3268.30;66.30
39325;DHT22;25037;49.488;9.900;2022-12-18T08:22:35;-3268.40;66.10
39325;DHT22;25037;49.488;9.900;2022-12-18T08:25:01;-3268.50;66.20
39325;DHT22;25037;49.488;9.900;2022-12-18T08:27:27;-3268.70;66.20
39325;DHT22;25037;49.488;9.900;2022-12-18T08:29:52;-3268.80;66.10
39325;DHT22;25037;49.488;9.900;2022-12-18T08:32:18;-3269.00;66.10
39325;DHT22;25037;49.488;9.900;2022-12-18T08:34:43;-3269.10;66.00
39325;DHT22;25037;49.488;9.900;2022-12-18T08:37:09;-3269.30;66.00
39325;DHT22;25037;49.488;9.900;2022-12-18T08:39:34;-3269.40;65.90
39325;DHT22;25037;49.488;9.900;2022-12-18T08:42:00;-3269.50;65.90
39325;DHT22;25037;49.488;9.900;2022-12-18T08:44:44;-3269.70;65.90
39325;DHT22;25037;49.488;9.900;2022-12-18T08:47:09;-3269.80;65.90
39325;DHT22;25037;49.488;9.900;2022-12-18T08:49:35;-3269.90;65.90
39325;DHT22;25037;49.488;9.900;2022-12-18T08:52:00;-3270.00;65.90
39325;DHT22;25037;49.488;9.900;2022-12-18T08:54:27;-3270.10;65.90
39325;DHT22;25037;49.488;9.900;2022-12-18T08:56:53;-3270.20;65.90
39325;DHT22;25037;49.488;9.900;2022-12-18T08:59:18;-3270.40;65.80
39325;DHT22;25037;49.488;9.900;2022-12-18T09:01:44;-3270.50;65.70
39325;DHT22;25037;49.488;9.900;2022-12-18T09:04:10;-3270.50;65.60
39325;DHT22;25037;49.488;9.900;2022-12-18T09:06:36;-3270.70;66.00
39325;DHT22;25037;49.488;9.900;2022-12-18T09:09:02;-3270.90;65.90
39325;DHT22;25037;49.488;9.900;2022-12-18T09:11:27;-3271.00;65.50
39325;DHT22;25037;49.488;9.900;2022-12-18T09:13:53;-3271.10;65.50
39325;DHT22;25037;49.488;9.900;2022-12-18T09:16:19;-3271.20;65.50
39325;DHT22;25037;49.488;9.900;2022-12-18T09:18:45;-3271.20;65.50
39325;DHT22;25037;49.488;9.900;2022-12-18T09:21:12;-3271.30;65.50
39325;DHT22;25037;49.488;9.900;2022-12-18T09:23:38;-3271.30;65.60
39325;DHT22;25037;49.488;9.900;2022-12-18T09:26:04;-3271.40;65.60
39325;DHT22;25037;49.488;9.900;2022-12-18T09:28:30;-3271.50;65.60
39325;DHT22;25037;49.488;9.900;2022-12-18T09:30:56;-3271.50;65.60
39325;DHT22;25037;49.488;9.900;2022-12-18T09:33:21;-3271.60;65.80
39325;DHT22;25037;49.488;9.900;2022-12-18T09:35:47;-3271.80;65.80
39325;DHT22;25037;49.488;9.900;2022-12-18T09:38:16;-3272.00;65.40
39325;DHT22;25037;49.488;9.900;2022-12-18T09:40:50;-3272.10;65.30
39325;DHT22;25037;49.488;9.900;2022-12-18T09:43:20;-3272.20;65.30
39325;DHT22;25037;49.488;9.900;2022-12-18T09:45:58;-3272.20;65.30
39325;DHT22;25037;49.488;9.900;2022-12-18T09:48:31;-3272.30;65.20
39325;DHT22;25037;49.488;9.900;2022-12-18T09:50:59;-3272.40;65.30
39325;DHT22;25037;49.488;9.900;2022-12-18T09:53:26;-3272.50;65.20
39325;DHT22;25037;49.488;9.900;2022-12-18T09:55:53;-3272.60;65.30
39325;DHT22;25037;49.488;9.900;2022-12-18T09:58:33;-3272.70;65.40
39325;DHT22;25037;49.488;9.900;2022-12-18T10:01:01;-3272.80;65.30
39325;DHT22;25037;49.488;9.900;2022-12-18T10:03:27;-3272.90;65.40
39325;DHT22;25037;49.488;9.900;2022-12-18T10:10:57;-3273.20;65.30
39325;DHT22;25037;49.488;9.900;2022-12-18T10:13:29;-3273.30;65.00
39325;DHT22;25037;49.488;9.900;2022-12-18T10:21:15;-3273.50;65.20
39325;DHT22;25037;49.488;9.900;2022-12-18T10:26:09;-3273.70;65.20
39325;DHT22;25037;49.488;9.900;2022-12-18T10:28:36;-3273.90;65.20
39325;DHT22;25037;49.488;9.900;2022-12-18T10:31:02;-3273.90;65.10
39325;DHT22;25037;49.488;9.900;2022-12-18T10:33:30;-3274.00;65.30
39325;DHT22;25037;49.488;9.900;2022-12-18T10:35:57;-3274.20;65.30
39325;DHT22;25037;49.488;9.900;2022-12-18T10:43:19;-3274.50;65.00
39325;DHT22;25037;49.488;9.900;2022-12-18T10:45:58;-3274.70;65.10
39325;DHT22;25037;49.488;9.900;2022-12-18T10:48:24;-3274.80;65.00
39325;DHT22;25037;49.488;9.900;2022-12-18T10:50:50;-3274.90;64.90
39325;DHT22;25037;49.488;9.900;2022-12-18T10:53:21;-3275.00;65.00
39325;DHT22;25037;49.488;9.900;2022-12-18T10:55:47;-3275.20;65.00
39325;DHT22;25037;49.488;9.900;2022-12-18T10:58:47;-3275.40;65.00
39325;DHT22;25037;49.488;9.900;2022-12-18T11:03:32;-3275.70;64.90
39325;DHT22;25037;49.488;9.900;2022-12-18T11:06:01;-3275.80;64.90
39325;DHT22;25037;49.488;9.900;2022-12-18T11:08:27;-3276.00;64.90
39325;DHT22;25037;49.488;9.900;2022-12-18T11:10:52;-3276.20;64.70
39325;DHT22;25037;49.488;9.900;2022-12-18T11:13:19;-3276.40;64.70
39325;DHT22;25037;49.488;9.900;2022-12-18T11:15:45;-3276.60;64.70
39325;DHT22;25037;49.488;9.900;2022-12-18T11:18:19;-3276.70;64.60
39325;DHT22;25037;49.488;9.900;2022-12-18T11:20:52;0.00;64.60
39325;DHT22;25037;49.488;9.900;2022-12-18T11:23:19;0.10;64.50
39325;DHT22;25037;49.488;9.900;2022-12-18T11:25:51;0.30;64.50
39325;DHT22;25037;49.488;9.900;2022-12-18T11:33:40;0.60;64.10
39325;DHT22;25037;49.488;9.900;2022-12-18T11:36:07;0.70;64.00
39325;DHT22;25037;49.488;9.900;2022-12-18T11:38:37;0.80;63.90
39325;DHT22;25037;49.488;9.900;2022-12-18T11:43:29;1.00;63.80
39325;DHT22;25037;49.488;9.900;2022-12-18T11:46:02;1.20;63.80
39325;DHT22;25037;49.488;9.900;2022-12-18T11:48:52;1.30;63.70
39325;DHT22;25037;49.488;9.900;2022-12-18T11:51:17;1.40;63.80
39325;DHT22;25037;49.488;9.900;2022-12-18T11:53:43;1.60;63.50
39325;DHT22;25037;49.488;9.900;2022-12-18T11:59:06;1.80;63.40
39325;DHT22;25037;49.488;9.900;2022-12-18T12:09:09;2.10;62.90
39325;DHT22;25037;49.488;9.900;2022-12-18T12:11:42;2.20;63.10
39325;DHT22;25037;49.488;9.900;2022-12-18T12:14:30;2.30;63.10
39325;DHT22;25037;49.488;9.900;2022-12-18T12:17:02;2.40;63.30
39325;DHT22;25037;49.488;9.900;2022-12-18T12:37:25;2.90;63.10
39325;DHT22;25037;49.488;9.900;2022-12-18T12:39:54;2.90;63.00
39325;DHT22;25037;49.488;9.900;2022-12-18T12:42:25;2.90;63.00
39325;DHT22;25037;49.488;9.900;2022-12-18T12:45:17;2.80;63.10
39325;DHT22;25037;49.488;9.900;2022-12-18T12:47:43;2.80;63.20
39325;DHT22;25037;49.488;9.900;2022-12-18T12:50:13;2.70;63.20
39325;DHT22;25037;49.488;9.900;2022-12-18T12:52:40;2.60;63.20
39325;DHT22;25037;49.488;9.900;2022-12-18T12:55:12;2.60;63.30
39325;DHT22;25037;49.488;9.900;2022-12-18T12:57:39;2.50;63.60
39325;DHT22;25037;49.488;9.900;2022-12-18T13:00:08;2.40;63.70
39325;DHT22;25037;49.488;9.900;2022-12-18T13:07:58;2.30;63.80
39325;DHT22;25037;49.488;9.900;2022-12-18T13:25:46;1.80;63.50
39325;DHT22;25037;49.488;9.900;2022-12-18T13:28:16;1.70;63.70
39325;DHT22;25037;49.488;9.900;2022-12-18T13:30:45;1.60;63.80
39325;DHT22;25037;49.488;9.900;2022-12-18T13:38:21;1.70;63.70
39325;DHT22;25037;49.488;9.900;2022-12-18T13:43:32;1.40;63.50
39325;DHT22;25037;49.488;9.900;2022-12-18T13:48:24;1.30;63.70
39325;DHT22;25037;49.488;9.900;2022-12-18T13:50:52;1.20;63.80
39325;DHT22;25037;49.488;9.900;2022-12-18T13:53:20;1.10;63.90
39325;DHT22;25037;49.488;9.900;2022-12-18T13:55:46;1.20;63.90
39325;DHT22;25037;49.488;9.900;2022-12-18T13:58:12;1.10;63.90
39325;DHT22;25037;49.488;9.900;2022-12-18T14:00:41;1.00;63.90
39325;DHT22;25037;49.488;9.900;2022-12-18T14:03:17;1.00;64.00
39325;DHT22;25037;49.488;9.900;2022-12-18T14:05:44;1.00;64.10
39325;DHT22;25037;49.488;9.900;2022-12-18T14:08:11;1.00;64.10
39325;DHT22;25037;49.488;9.900;2022-12-18T14:10:41;0.90;64.20
39325;DHT22;25037;49.488;9.900;2022-12-18T14:13:08;0.90;64.20
39325;DHT22;25037;49.488;9.900;2022-12-18T14:15:35;0.90;64.20
39325;DHT22;25037;49.488;9.900;2022-12-18T14:18:03;0.90;64.20
39325;DHT22;25037;49.488;9.900;2022-12-18T14:20:34;0.80;64.20
39325;DHT22;25037;49.488;9.900;2022-12-18T14:23:00;0.70;64.20
39325;DHT22;25037;49.488;9.900;2022-12-18T14:25:27;0.70;64.30
39325;DHT22;25037;49.488;9.900;2022-12-18T14:33:02;0.50;64.40
39325;DHT22;25037;49.488;9.900;2022-12-18T14:35:28;0.40;64.40
39325;DHT22;25037;49.488;9.900;2022-12-18T14:37:58;0.30;64.50
39325;DHT22;25037;49.488;9.900;2022-12-18T14:40:32;0.20;64.50
39325;DHT22;25037;49.488;9.900;2022-12-18T14:42:57;0.20;64.60
39325;DHT22;25037;49.488;9.900;2022-12-18T14:45:39;0.10;64.60
39325;DHT22;25037;49.488;9.900;2022-12-18T14:50:40;0.00;64.70
39325;DHT22;25037;49.488;9.900;2022-12-18T14:53:06;0.00;64.70
39325;DHT22;25037;49.488;9.900;2022-12-18T14:55:31;0.00;64.80
39325;DHT22;25037;49.488;9.900;2022-12-18T14:57:57;-3276.70;64.80
39325;DHT22;25037;49.488;9.900;2022-12-18T15:00:24;-3276.70;64.80
39325;DHT22;25037;49.488;9.900;2022-12-18T15:02:53;-3276.70;64.80
39325;DHT22;25037;49.488;9.900;2022-12-18T15:05:20;-3276.70;64.80
39325;DHT22;25037;49.488;9.900;2022-12-18T15:07:50;-3276.60;64.80
39325;DHT22;25037;49.488;9.900;2022-12-18T15:10:20;-3276.60;64.90
39325;DHT22;25037;49.488;9.900;2022-12-18T15:12:47;-3276.50;65.00
39325;DHT22;25037;49.488;9.900;2022-12-18T15:17:58;-3276.60;65.00
39325;DHT22;25037;49.488;9.900;2022-12-18T15:20:24;-3276.60;65.00
39325;DHT22;25037;49.488;9.900;2022-12-18T15:22:49;-3276.60;65.00
39325;DHT22;25037;49.488;9.900;2022-12-18T15:25:27;-3276.60;65.20
39325;DHT22;25037;49.488;9.900;2022-12-18T15:27:57;-3276.70;65.00
39325;DHT22;25037;49.488;9.900;2022-12-18T15:30:23;-3276.70;64.90
39325;DHT22;25037;49.488;9.900;2022-12-18T15:32:49;-3276.60;64.90
39325;DHT22;25037;49.488;9.900;2022-12-18T15:35:21;-3276.60;64.90
39325;DHT22;25037;49.488;9.900;2022-12-18T15:37:47;-3276.50;64.90
39325;DHT22;25037;49.488;9.900;2022-12-18T15:40:17;-3276.50;65.00
39325;DHT22;25037;49.488;9.900;2022-12-18T15:42:43;-3276.40;65.00
39325;DHT22;25037;49.488;9.900;2022-12-18T15:45:27;-3276.40;65.10
39325;DHT22;25037;49.488;9.900;2022-12-18T15:47:53;-3276.40;65.10
39325;DHT22;25037;49.488;9.900;2022-12-18T15:50:19;-3276.40;65.10
39325;DHT22;25037;49.488;9.900;2022-12-18T15:52:45;-3276.40;65.20
39325;DHT22;25037;49.488;9.900;2022-12-18T15:55:11;-3276.40;65.20
39325;DHT22;25037;49.488;9.900;2022-12-18T15:57:56;-3276.40;65.30
39325;DHT22;25037;49.488;9.900;2022-12-18T16:00:21;-3276.40;65.30
39325;DHT22;25037;49.488;9.900;2022-12-18T16:02:47;-3276.40;65.30
39325;DHT22;25037;49.488;9.900;2022-12-18T16:05:16;-3276.40;65.30
39325;DHT22;25037;49.488;9.900;2022-12-18T16:07:42;-3276.40;65.20
39325;DHT22;25037;49.488;9.900;2022-12-18T16:10:08;-3276.40;65.30
39325;DHT22;25037;49.488;9.900;2022-12-18T16:12:34;-3276.30;65.40
39325;DHT22;25037;49.488;9.900;2022-12-18T16:14:59;-3276.30;65.40
39325;DHT22;25037;49.488;9.900;2022-12-18T16:17:24;-3276.40;65.50
39325;DHT22;25037;49.488;9.900;2022-12-18T16:19:50;-3276.40;65.50
39325;DHT22;25037;49.488;9.900;2022-12-18T16:24:45;-3276.40;65.40
39325;DHT22;25037;49.488;9.900;2022-12-18T16:27:11;-3276.40;65.40
39325;DHT22;25037;49.488;9.900;2022-12-18T16:29:36;-3276.40;65.40
39325;DHT22;25037;49.488;9.900;2022-12-18T16:32:02;-3276.40;65.40
39325;DHT22;25037;49.488;9.900;2022-12-18T16:34:28;-3276.40;65.40
39325;DHT22;25037;49.488;9.900;2022-12-18T16:36:58;-3276.40;65.50
39325;DHT22;25037;49.488;9.900;2022-12-18T16:39:24;-3276.40;65.50
39325;DHT22;25037;49.488;9.900;2022-12-18T16:41:50;-3276.40;65.50
39325;DHT22;25037;49.488;9.900;2022-12-18T16:44:15;-3276.40;65.60
39325;DHT22;25037;49.488;9.900;2022-12-18T16:46:41;-3276.40;65.50
39325;DHT22;25037;49.488;9.900;2022-12-18T16:49:17;-3276.50;65.50
39325;DHT22;25037;49.488;9.900;2022-12-18T16:51:42;-3276.50;65.40
39325;DHT22;25037;49.488;9.900;2022-12-18T16:54:08;-3276.50;65.40
39325;DHT22;25037;49.488;9.900;2022-12-18T16:56:34;-3276.50;65.40
39325;DHT22;25037;49.488;9.900;2022-12-18T16:59:00;-3276.40;65.30
39325;DHT22;25037;49.488;9.900;2022-12-18T17:01:26;-3276.40;65.40